AirNav   Air Wisconsin pilot careers
 
 289 users online  

SC01 Ashley Field Airport
Honea Path, South Carolina, USA

GOING TO HONEA PATH?


FAA INFORMATION EFFECTIVE 25 APRIL 2019

Location

FAA Identifier: SC01
Lat/Long: 34-26-47.0000N / 082-21-52.0000W
34-26.783333N / 082-21.866667W
34.4463889 / -82.3644444
(estimated)
Elevation: 777 ft. / 237 m (estimated)
From city: 1 mile SE of HONEA PATH, SC
Time zone: UTC -4 (UTC -5 during Standard Time)
Zip code: 29654

Airport Operations

Airport use: Private use. Permission required prior to landing
Activation date: 10/2014
Control tower: no
ARTCC: ATLANTA CENTER
FSS: ANDERSON FLIGHT SERVICE STATION
Attendance: UNATTND
Wind indicator: yes
Segmented circle: no

Airport Communications

WX ASOS at GRD (16 nm SE): 121.125 (864-388-9115)
WX ASOS at AND (17 nm W): 120.675 (864-226-9522)
WX AWOS-3 at GYH (19 nm N): 127.325 (864-277-5674)

Nearby radio navigation aids

VOR radial/distance  VOR name  Freq  Var
GRDr319/15.7GREENWOOD VORTAC115.5001W
ELWr086/20.9ELECTRIC CITY VORTAC108.6000E

 
NDB name  Hdg/Dist  Freq  Var  ID
CORONACA317/17.923907WGIW --. .. .--
FAIRMONT219/33.124805WFRT ..-. .-. -
ENOREE290/37.027807WEOE . --- .
UNION COUNTY254/38.432606WUOT ..- --- -

Airport Services

Runway Information

Runway 13/31

Dimensions: 3000 x 125 ft. / 914 x 38 m
Surface: turf, in good condition
Runway edge lights: non-standard
NSTD LOW INTENSITY LIGHTING SYSTEM - NOT COMMERCIAL GRADE.
RUNWAY 13  RUNWAY 31
Traffic pattern: leftleft

Runway 18/36

Dimensions: 2400 x 125 ft. / 732 x 38 m
Surface: turf, in good condition
Runway edge lights: non-standard
NSTD LOW INTENSITY LIGHTING SYSTEM - NOT COMMERCIAL GRADE.
RUNWAY 18  RUNWAY 36
Traffic pattern: leftleft

Airport Ownership and Management from official FAA records

Ownership: Privately-owned
Owner: LINDA A. BOLING
PO BOX 145
WARE SHOALS, SC 29692
Phone 864-861-2183
Manager: HONEA PATH FLYING CLUB
8577 HWY. 252
HONEA PATH, SC 29654
Phone 864-369-9386

Airport Operational Statistics

Aircraft based on the field: 11
Single engine airplanes: 11
    

Instrument Procedures

There are no published instrument procedures at SC01.

Some nearby airports with instrument procedures:

KGRD - Greenwood County Airport (16 nm SE)
KAND - Anderson Regional Airport (17 nm W)
KGYH - Donaldson Field Airport (19 nm N)
KLUX - Laurens County Airport (21 nm E)
KGMU - Greenville Downtown Airport (24 nm N)
 
Loc | Ops | Rwys | IFR | FBO | Links
Com | Nav | Svcs | Stats | Notes
Aerial photo
No photo
 
Airport distance calculator
Flying to Ashley Field Airport? Find the distance to fly.

From to SC01

Sunrise and sunset
Times for 19-May-2019
 Local
(UTC-4)
 Zulu
(UTC)
Morning civil twilight05:5709:57
Sunrise06:2510:25
Sunset20:2700:27
Evening civil twilight20:5500:55

Current date and time
Zulu (UTC)  19-May-2019 09:51:07
Local (UTC-4)  19-May-2019 05:51:07
 
METAR
KGRD 
16nm SE 
190856Z AUTO 18007KT 10SM CLR 22/18 A3004 RMK AO2 SLP165 T02170183 53004
KAND 
18nm W 
190856Z AUTO 00000KT 10SM CLR 20/18 A3002 RMK AO2 SLP157 T02000183 53004
KGYH 
19nm N 
190935Z AUTO 20003KT 10SM SCT080 20/18 A3004 RMK AO2
KLUX 
21nm E 
190935Z AUTO 20005KT 10SM CLR 19/18 A3004 RMK AO2
KGMU 
24nm N 
190853Z AUTO 00000KT 10SM BKN080 22/19 A3004 RMK AO2 SLP161 T02170189 53005
KLQK 
27nm NW 
190935Z AUTO 00000KT 7SM SCT095 17/17 A3003 RMK AO2 T01650165
KGSP 
28nm N 
190853Z AUTO 22004KT 10SM FEW065 19/17 A3004 RMK AO2 SLP159 T01940172 53005
KCEU 
29nm NW 
190854Z AUTO 00000KT 10SM SCT100 19/18 A3004 RMK AO2 SLP159 T01940183 51005
KEBA 
31nm SW 
190935Z AUTO 00000KT 10SM CLR 20/19 A3004 RMK AO2 T02020186
TAF
KAND 
18nm W 
190532Z 1906/2006 00000KT P6SM FEW200 FM191300 19004KT P6SM FEW200 FM191700 20010G18KT P6SM FEW060 SCT250 FM192100 20010KT P6SM FEW060 FM200100 18003KT P6SM FEW250
NOTAMs
Click for the latest NOTAMs
NOTAMs are issued by the DoD/FAA and will open in a separate window not controlled by AirNav.

 

 
 

Would you like to see your business listed on this page?

 If your business provides an interesting product or service to pilots, flight crews, aircraft, or users of the Ashley Field Airport, you should consider listing it here.  To start the listing process, click on the button below
 
Add a business
 

Other Pages about Ashley Field Airport

Update a link
 
Copyright © AirNav, LLC. All rights reserved. Privacy Policy  Contact